New Salem, Kansas
Current Conditions -  °F | °C
As of 11:54 AM on Wednesday 26 Nov 2014 (Local Time) from KWLD Reporting Station
Clear Clear  
Wind Chill: 50°   Ceiling: Unl
Heat Index: 50°   Visibility: 10mi
Dew Point: 26°   Wind: 29mph
Humidity: 39%   Direction: 330°NNW
Pressure: 30.16"   Gusts: 39mph
Location:  37.2455°N, 96.9242°W
Report Text: KWLD 261754Z AUTO 33025G34KT 10SM CLR 10/M03 A3016 RMK AO2 PK WND 33037/1655 SLP216 T01001033 10100 20033 50019
Loading
Personal Weather Stations






























Interactive Weather Map New forecast layout! Learn more

10-Day Weather Forecast

Advertisements
Track Severe Weather on mobile